CheckWX is a tool to help pilots better visualize weather data.  It is not intended as a substitute for an official pre-flight weather briefing.

20:52:34 UTC

CYOD TAF
CFB Cold Lake Airport
Cold Lake, Canada
TAF CYOD 191730Z 1918/2018 26006KT P6SM BKN100 BECMG 1918/1920 28008KT FEW100 FM200300 27005KT P6SM SCT030 BKN180 FM200900 27006KT P6SM -SNRA OVC025 FM201500 29008KT P6SM BKN040 RMK NXT FCST BY 200000Z

Oct-19@
18:00 UTC

Oct-19 @ 18:00 UTC

Oct-20@
18:00 UTC

Oct-20 @ 18:00 UTC

TAF CYOD 191730Z 1918/2018 26006KT P6SM BKN100
Wind
  • 260° at 6 KTS
Cloud Levels
  • Broken at 10,000' AGL

Oct-19@
18:00 UTC

Oct-19 @ 18:00 UTC

Oct-20@
03:00 UTC

Oct-20 @ 03:00 UTC

BECMG 1918/1920 28008KT FEW100

Becoming

Becoming Conditions expected by Sat, Oct 19, 2019 @ 20:00 UTC

Wind
  • 280° at 8 KTS
Cloud Levels
  • Few at 10,000' AGL

Oct-20@
03:00 UTC

Oct-20 @ 03:00 UTC

Oct-20@
09:00 UTC

Oct-20 @ 09:00 UTC

FM200300 27005KT P6SM SCT030 BKN180

From

From Standard forecast or significant change

Wind
  • 270° at 5 KTS
Cloud Levels
  • Scattered at 3,000' AGL
  • Broken at 18,000' AGL

Oct-20@
09:00 UTC

Oct-20 @ 09:00 UTC

Oct-20@
15:00 UTC

Oct-20 @ 15:00 UTC

FM200900 27006KT P6SM -SNRA OVC025

From

From Standard forecast or significant change

Wind
  • 270° at 6 KTS
Conditions
Light Snow, Light Rain
Cloud Levels
  • Overcast at 2,500' AGL

Oct-20@
15:00 UTC

Oct-20 @ 15:00 UTC

Oct-20@
18:00 UTC

Oct-20 @ 18:00 UTC

FM201500 29008KT P6SM BKN040 RMK NXT FCST BY 200000Z

From

From Standard forecast or significant change

Wind
  • 290° at 8 KTS
Cloud Levels
  • Broken at 4,000' AGL